sensor_id;sensor_type;location;lat;lon;timestamp;P1;durP1;ratioP1;P2;durP2;ratioP2
57113;SDS011;42994;51.606;9.988;2023-03-03T00:00:32;65.90;;;26.33;;
57113;SDS011;42994;51.606;9.988;2023-03-03T00:03:00;63.80;;;25.30;;
57113;SDS011;42994;51.606;9.988;2023-03-03T00:05:32;60.60;;;25.20;;
57113;SDS011;42994;51.606;9.988;2023-03-03T00:07:59;70.43;;;25.42;;
57113;SDS011;42994;51.606;9.988;2023-03-03T00:10:25;59.97;;;25.88;;
57113;SDS011;42994;51.606;9.988;2023-03-03T00:12:52;69.65;;;26.40;;
57113;SDS011;42994;51.606;9.988;2023-03-03T00:15:20;70.82;;;25.23;;
57113;SDS011;42994;51.606;9.988;2023-03-03T00:17:48;72.38;;;26.17;;
57113;SDS011;42994;51.606;9.988;2023-03-03T00:20:26;67.95;;;24.95;;
57113;SDS011;42994;51.606;9.988;2023-03-03T00:22:58;66.30;;;25.45;;
57113;SDS011;42994;51.606;9.988;2023-03-03T00:25:38;73.45;;;26.92;;
57113;SDS011;42994;51.606;9.988;2023-03-03T00:28:13;65.50;;;22.80;;
57113;SDS011;42994;51.606;9.988;2023-03-03T00:30:45;66.35;;;25.35;;
57113;SDS011;42994;51.606;9.988;2023-03-03T00:33:13;66.50;;;23.60;;
57113;SDS011;42994;51.606;9.988;2023-03-03T00:35:52;56.78;;;23.83;;
57113;SDS011;42994;51.606;9.988;2023-03-03T00:38:21;64.05;;;22.92;;
57113;SDS011;42994;51.606;9.988;2023-03-03T00:40:48;52.97;;;23.77;;
57113;SDS011;42994;51.606;9.988;2023-03-03T00:43:19;57.85;;;21.25;;
57113;SDS011;42994;51.606;9.988;2023-03-03T00:45:48;57.25;;;23.70;;
57113;SDS011;42994;51.606;9.988;2023-03-03T00:48:23;57.95;;;23.38;;
57113;SDS011;42994;51.606;9.988;2023-03-03T00:50:52;56.58;;;22.67;;
57113;SDS011;42994;51.606;9.988;2023-03-03T00:53:21;58.15;;;22.05;;
57113;SDS011;42994;51.606;9.988;2023-03-03T00:55:49;54.97;;;20.88;;
57113;SDS011;42994;51.606;9.988;2023-03-03T00:58:18;60.65;;;21.67;;
57113;SDS011;42994;51.606;9.988;2023-03-03T01:00:47;56.60;;;21.40;;
57113;SDS011;42994;51.606;9.988;2023-03-03T01:03:17;51.33;;;21.85;;
57113;SDS011;42994;51.606;9.988;2023-03-03T01:05:46;58.13;;;22.25;;
57113;SDS011;42994;51.606;9.988;2023-03-03T01:08:13;59.58;;;21.30;;
57113;SDS011;42994;51.606;9.988;2023-03-03T01:10:43;57.80;;;22.40;;
57113;SDS011;42994;51.606;9.988;2023-03-03T01:13:15;57.40;;;22.45;;
57113;SDS011;42994;51.606;9.988;2023-03-03T01:15:42;54.85;;;22.85;;
57113;SDS011;42994;51.606;9.988;2023-03-03T01:18:12;59.80;;;22.38;;
57113;SDS011;42994;51.606;9.988;2023-03-03T01:20:39;53.75;;;23.40;;
57113;SDS011;42994;51.606;9.988;2023-03-03T01:23:06;62.13;;;22.35;;
57113;SDS011;42994;51.606;9.988;2023-03-03T01:25:33;63.22;;;22.52;;
57113;SDS011;42994;51.606;9.988;2023-03-03T01:28:01;67.60;;;22.77;;
57113;SDS011;42994;51.606;9.988;2023-03-03T01:30:28;51.83;;;21.48;;
57113;SDS011;42994;51.606;9.988;2023-03-03T01:32:55;73.60;;;24.25;;
57113;SDS011;42994;51.606;9.988;2023-03-03T01:35:22;73.57;;;23.08;;
57113;SDS011;42994;51.606;9.988;2023-03-03T01:37:49;62.05;;;22.23;;
57113;SDS011;42994;51.606;9.988;2023-03-03T01:40:17;67.82;;;22.02;;
57113;SDS011;42994;51.606;9.988;2023-03-03T01:42:45;61.97;;;23.58;;
57113;SDS011;42994;51.606;9.988;2023-03-03T01:45:15;58.88;;;22.27;;
57113;SDS011;42994;51.606;9.988;2023-03-03T01:47:45;58.05;;;21.27;;
57113;SDS011;42994;51.606;9.988;2023-03-03T01:50:17;54.42;;;21.30;;
57113;SDS011;42994;51.606;9.988;2023-03-03T01:52:53;51.20;;;22.45;;
57113;SDS011;42994;51.606;9.988;2023-03-03T01:55:22;58.58;;;22.70;;
57113;SDS011;42994;51.606;9.988;2023-03-03T01:57:54;48.13;;;19.23;;
57113;SDS011;42994;51.606;9.988;2023-03-03T02:02:52;52.47;;;21.35;;
57113;SDS011;42994;51.606;9.988;2023-03-03T02:05:20;57.72;;;21.92;;
57113;SDS011;42994;51.606;9.988;2023-03-03T02:07:49;56.10;;;22.30;;
57113;SDS011;42994;51.606;9.988;2023-03-03T02:10:17;54.63;;;22.42;;
57113;SDS011;42994;51.606;9.988;2023-03-03T02:12:47;72.55;;;21.00;;
57113;SDS011;42994;51.606;9.988;2023-03-03T02:15:16;56.88;;;21.73;;
57113;SDS011;42994;51.606;9.988;2023-03-03T02:17:47;58.22;;;21.08;;
57113;SDS011;42994;51.606;9.988;2023-03-03T02:20:17;67.30;;;22.17;;
57113;SDS011;42994;51.606;9.988;2023-03-03T02:22:54;59.08;;;21.35;;
57113;SDS011;42994;51.606;9.988;2023-03-03T02:25:33;63.08;;;23.05;;
57113;SDS011;42994;51.606;9.988;2023-03-03T02:28:06;60.33;;;22.23;;
57113;SDS011;42994;51.606;9.988;2023-03-03T02:30:36;68.22;;;24.35;;
57113;SDS011;42994;51.606;9.988;2023-03-03T02:33:04;56.60;;;23.83;;
57113;SDS011;42994;51.606;9.988;2023-03-03T02:35:32;57.55;;;22.80;;
57113;SDS011;42994;51.606;9.988;2023-03-03T02:38:03;66.18;;;23.30;;
57113;SDS011;42994;51.606;9.988;2023-03-03T02:40:46;54.70;;;20.88;;
57113;SDS011;42994;51.606;9.988;2023-03-03T02:43:20;49.42;;;21.00;;
57113;SDS011;42994;51.606;9.988;2023-03-03T02:45:52;55.00;;;20.90;;
57113;SDS011;42994;51.606;9.988;2023-03-03T02:48:18;78.55;;;21.00;;
57113;SDS011;42994;51.606;9.988;2023-03-03T02:50:45;75.90;;;19.83;;
57113;SDS011;42994;51.606;9.988;2023-03-03T02:53:11;56.08;;;20.50;;
57113;SDS011;42994;51.606;9.988;2023-03-03T02:55:38;72.85;;;19.77;;
57113;SDS011;42994;51.606;9.988;2023-03-03T02:58:05;44.45;;;19.20;;
57113;SDS011;42994;51.606;9.988;2023-03-03T03:00:33;58.70;;;19.58;;
57113;SDS011;42994;51.606;9.988;2023-03-03T03:02:59;76.85;;;21.13;;
57113;SDS011;42994;51.606;9.988;2023-03-03T03:05:26;51.15;;;17.90;;
57113;SDS011;42994;51.606;9.988;2023-03-03T03:07:53;52.72;;;17.25;;
57113;SDS011;42994;51.606;9.988;2023-03-03T03:10:20;57.47;;;19.05;;
57113;SDS011;42994;51.606;9.988;2023-03-03T03:12:47;55.40;;;17.45;;
57113;SDS011;42994;51.606;9.988;2023-03-03T03:15:14;52.15;;;17.90;;
57113;SDS011;42994;51.606;9.988;2023-03-03T03:17:42;54.95;;;19.23;;
57113;SDS011;42994;51.606;9.988;2023-03-03T03:20:10;40.90;;;16.77;;
57113;SDS011;42994;51.606;9.988;2023-03-03T03:22:37;87.28;;;19.45;;
57113;SDS011;42994;51.606;9.988;2023-03-03T03:25:05;51.88;;;18.25;;
57113;SDS011;42994;51.606;9.988;2023-03-03T03:27:32;49.15;;;19.27;;
57113;SDS011;42994;51.606;9.988;2023-03-03T03:29:59;76.10;;;18.67;;
57113;SDS011;42994;51.606;9.988;2023-03-03T03:32:27;78.68;;;19.75;;
57113;SDS011;42994;51.606;9.988;2023-03-03T03:34:56;43.83;;;17.83;;
57113;SDS011;42994;51.606;9.988;2023-03-03T03:37:22;55.92;;;18.80;;
57113;SDS011;42994;51.606;9.988;2023-03-03T03:39:49;47.03;;;17.92;;
57113;SDS011;42994;51.606;9.988;2023-03-03T03:42:17;42.47;;;17.58;;
57113;SDS011;42994;51.606;9.988;2023-03-03T03:44:45;43.60;;;17.70;;
57113;SDS011;42994;51.606;9.988;2023-03-03T03:47:13;40.83;;;17.73;;
57113;SDS011;42994;51.606;9.988;2023-03-03T03:49:39;39.83;;;17.17;;
57113;SDS011;42994;51.606;9.988;2023-03-03T03:52:07;41.75;;;16.25;;
57113;SDS011;42994;51.606;9.988;2023-03-03T03:54:34;35.30;;;14.68;;
57113;SDS011;42994;51.606;9.988;2023-03-03T03:57:01;43.97;;;16.02;;
57113;SDS011;42994;51.606;9.988;2023-03-03T03:59:28;40.65;;;17.48;;
57113;SDS011;42994;51.606;9.988;2023-03-03T04:01:55;35.45;;;15.40;;
57113;SDS011;42994;51.606;9.988;2023-03-03T04:04:23;39.95;;;16.02;;
57113;SDS011;42994;51.606;9.988;2023-03-03T04:06:51;35.38;;;17.13;;
57113;SDS011;42994;51.606;9.988;2023-03-03T04:09:19;35.50;;;15.65;;
57113;SDS011;42994;51.606;9.988;2023-03-03T04:11:46;33.35;;;13.48;;
57113;SDS011;42994;51.606;9.988;2023-03-03T04:14:14;33.35;;;14.07;;
57113;SDS011;42994;51.606;9.988;2023-03-03T04:16:41;44.42;;;17.20;;
57113;SDS011;42994;51.606;9.988;2023-03-03T04:19:08;30.00;;;14.02;;
57113;SDS011;42994;51.606;9.988;2023-03-03T04:21:37;35.28;;;15.40;;
57113;SDS011;42994;51.606;9.988;2023-03-03T04:24:04;38.05;;;14.32;;
57113;SDS011;42994;51.606;9.988;2023-03-03T04:29:02;36.35;;;15.35;;
57113;SDS011;42994;51.606;9.988;2023-03-03T04:31:30;38.25;;;15.60;;
57113;SDS011;42994;51.606;9.988;2023-03-03T04:33:57;34.42;;;15.23;;
57113;SDS011;42994;51.606;9.988;2023-03-03T04:36:25;36.10;;;16.48;;
57113;SDS011;42994;51.606;9.988;2023-03-03T04:38:51;30.98;;;13.85;;
57113;SDS011;42994;51.606;9.988;2023-03-03T04:41:18;29.60;;;13.85;;
57113;SDS011;42994;51.606;9.988;2023-03-03T04:43:47;35.00;;;12.48;;
57113;SDS011;42994;51.606;9.988;2023-03-03T04:46:14;31.98;;;14.20;;
57113;SDS011;42994;51.606;9.988;2023-03-03T04:48:41;34.45;;;13.93;;
57113;SDS011;42994;51.606;9.988;2023-03-03T04:51:08;30.95;;;13.93;;
57113;SDS011;42994;51.606;9.988;2023-03-03T04:53:36;29.42;;;13.48;;
57113;SDS011;42994;51.606;9.988;2023-03-03T04:56:04;26.10;;;12.05;;
57113;SDS011;42994;51.606;9.988;2023-03-03T04:58:31;25.58;;;12.52;;
57113;SDS011;42994;51.606;9.988;2023-03-03T05:01:01;31.13;;;14.02;;
57113;SDS011;42994;51.606;9.988;2023-03-03T05:03:29;28.92;;;12.88;;
57113;SDS011;42994;51.606;9.988;2023-03-03T05:05:57;26.00;;;11.63;;
57113;SDS011;42994;51.606;9.988;2023-03-03T05:08:24;30.05;;;13.75;;
57113;SDS011;42994;51.606;9.988;2023-03-03T05:10:52;23.83;;;12.18;;
57113;SDS011;42994;51.606;9.988;2023-03-03T05:13:20;29.83;;;14.15;;
57113;SDS011;42994;51.606;9.988;2023-03-03T05:15:50;28.83;;;12.75;;
57113;SDS011;42994;51.606;9.988;2023-03-03T05:18:19;26.45;;;13.63;;
57113;SDS011;42994;51.606;9.988;2023-03-03T05:20:46;24.95;;;12.75;;
57113;SDS011;42994;51.606;9.988;2023-03-03T05:23:13;31.02;;;12.63;;
57113;SDS011;42994;51.606;9.988;2023-03-03T05:25:39;26.15;;;12.73;;
57113;SDS011;42994;51.606;9.988;2023-03-03T05:28:06;31.45;;;13.80;;
57113;SDS011;42994;51.606;9.988;2023-03-03T05:30:33;37.45;;;13.55;;
57113;SDS011;42994;51.606;9.988;2023-03-03T05:33:01;156.77;;;19.65;;
57113;SDS011;42994;51.606;9.988;2023-03-03T05:35:29;22.88;;;12.07;;
57113;SDS011;42994;51.606;9.988;2023-03-03T05:37:55;28.85;;;11.35;;
57113;SDS011;42994;51.606;9.988;2023-03-03T05:40:23;40.28;;;11.45;;
57113;SDS011;42994;51.606;9.988;2023-03-03T05:42:50;21.33;;;10.38;;
57113;SDS011;42994;51.606;9.988;2023-03-03T05:45:16;28.02;;;11.00;;
57113;SDS011;42994;51.606;9.988;2023-03-03T05:47:45;29.60;;;11.25;;
57113;SDS011;42994;51.606;9.988;2023-03-03T05:50:22;21.98;;;11.20;;
57113;SDS011;42994;51.606;9.988;2023-03-03T05:52:50;49.33;;;11.23;;
57113;SDS011;42994;51.606;9.988;2023-03-03T05:55:18;85.15;;;13.85;;
57113;SDS011;42994;51.606;9.988;2023-03-03T05:57:45;66.88;;;11.98;;
57113;SDS011;42994;51.606;9.988;2023-03-03T06:00:12;21.15;;;10.45;;
57113;SDS011;42994;51.606;9.988;2023-03-03T06:02:40;22.05;;;9.63;;
57113;SDS011;42994;51.606;9.988;2023-03-03T06:05:08;45.47;;;11.60;;
57113;SDS011;42994;51.606;9.988;2023-03-03T06:07:35;83.68;;;13.77;;
57113;SDS011;42994;51.606;9.988;2023-03-03T06:10:04;27.70;;;12.55;;
57113;SDS011;42994;51.606;9.988;2023-03-03T06:15:03;50.65;;;12.40;;
57113;SDS011;42994;51.606;9.988;2023-03-03T06:17:30;33.10;;;11.57;;
57113;SDS011;42994;51.606;9.988;2023-03-03T06:19:57;26.02;;;10.23;;
57113;SDS011;42994;51.606;9.988;2023-03-03T06:22:24;20.90;;;10.27;;
57113;SDS011;42994;51.606;9.988;2023-03-03T06:24:50;24.00;;;9.60;;
57113;SDS011;42994;51.606;9.988;2023-03-03T06:27:19;18.00;;;8.90;;
57113;SDS011;42994;51.606;9.988;2023-03-03T06:29:45;26.67;;;9.48;;
57113;SDS011;42994;51.606;9.988;2023-03-03T06:32:12;17.85;;;9.23;;
57113;SDS011;42994;51.606;9.988;2023-03-03T06:34:39;19.02;;;9.70;;
57113;SDS011;42994;51.606;9.988;2023-03-03T06:37:06;19.35;;;8.57;;
57113;SDS011;42994;51.606;9.988;2023-03-03T06:39:32;18.95;;;9.10;;
57113;SDS011;42994;51.606;9.988;2023-03-03T06:41:59;18.05;;;9.02;;
57113;SDS011;42994;51.606;9.988;2023-03-03T06:44:27;21.98;;;9.57;;
57113;SDS011;42994;51.606;9.988;2023-03-03T06:46:53;24.35;;;9.13;;
57113;SDS011;42994;51.606;9.988;2023-03-03T06:49:21;59.78;;;10.48;;
57113;SDS011;42994;51.606;9.988;2023-03-03T06:51:48;34.47;;;9.23;;
57113;SDS011;42994;51.606;9.988;2023-03-03T06:54:15;18.83;;;8.98;;
57113;SDS011;42994;51.606;9.988;2023-03-03T06:56:44;36.95;;;9.70;;
57113;SDS011;42994;51.606;9.988;2023-03-03T06:59:12;17.05;;;7.93;;
57113;SDS011;42994;51.606;9.988;2023-03-03T07:01:42;22.98;;;7.93;;
57113;SDS011;42994;51.606;9.988;2023-03-03T07:04:11;21.83;;;7.63;;
57113;SDS011;42994;51.606;9.988;2023-03-03T07:06:40;23.65;;;8.73;;
57113;SDS011;42994;51.606;9.988;2023-03-03T07:09:08;22.80;;;7.65;;
57113;SDS011;42994;51.606;9.988;2023-03-03T07:11:41;18.95;;;8.85;;
57113;SDS011;42994;51.606;9.988;2023-03-03T07:14:07;14.05;;;6.80;;
57113;SDS011;42994;51.606;9.988;2023-03-03T07:16:42;15.40;;;7.03;;
57113;SDS011;42994;51.606;9.988;2023-03-03T07:19:13;17.17;;;7.82;;
57113;SDS011;42994;51.606;9.988;2023-03-03T07:21:44;22.55;;;7.57;;
57113;SDS011;42994;51.606;9.988;2023-03-03T07:24:15;19.33;;;8.13;;
57113;SDS011;42994;51.606;9.988;2023-03-03T07:26:47;17.30;;;8.35;;
57113;SDS011;42994;51.606;9.988;2023-03-03T07:29:16;21.17;;;8.73;;
57113;SDS011;42994;51.606;9.988;2023-03-03T07:31:48;22.02;;;8.02;;
57113;SDS011;42994;51.606;9.988;2023-03-03T07:34:17;22.52;;;8.82;;
57113;SDS011;42994;51.606;9.988;2023-03-03T07:36:47;23.05;;;9.50;;
57113;SDS011;42994;51.606;9.988;2023-03-03T07:39:28;19.42;;;8.43;;
57113;SDS011;42994;51.606;9.988;2023-03-03T07:41:59;18.67;;;8.73;;
57113;SDS011;42994;51.606;9.988;2023-03-03T07:44:39;21.77;;;8.40;;
57113;SDS011;42994;51.606;9.988;2023-03-03T07:47:14;21.70;;;10.07;;
57113;SDS011;42994;51.606;9.988;2023-03-03T07:49:45;22.15;;;9.27;;
57113;SDS011;42994;51.606;9.988;2023-03-03T07:55:18;22.58;;;9.73;;
57113;SDS011;42994;51.606;9.988;2023-03-03T07:57:51;22.70;;;9.45;;
57113;SDS011;42994;51.606;9.988;2023-03-03T08:03:37;25.65;;;9.45;;
57113;SDS011;42994;51.606;9.988;2023-03-03T08:06:06;21.15;;;9.50;;
57113;SDS011;42994;51.606;9.988;2023-03-03T08:08:49;24.45;;;10.15;;
57113;SDS011;42994;51.606;9.988;2023-03-03T08:11:16;24.88;;;10.43;;
57113;SDS011;42994;51.606;9.988;2023-03-03T08:13:42;26.80;;;11.50;;
57113;SDS011;42994;51.606;9.988;2023-03-03T08:16:20;21.63;;;10.73;;
57113;SDS011;42994;51.606;9.988;2023-03-03T08:18:57;21.08;;;10.23;;
57113;SDS011;42994;51.606;9.988;2023-03-03T08:21:28;24.75;;;11.50;;
57113;SDS011;42994;51.606;9.988;2023-03-03T08:23:56;23.83;;;9.60;;
57113;SDS011;42994;51.606;9.988;2023-03-03T08:26:23;31.15;;;11.77;;
57113;SDS011;42994;51.606;9.988;2023-03-03T08:28:51;25.48;;;11.32;;
57113;SDS011;42994;51.606;9.988;2023-03-03T08:31:18;28.00;;;11.93;;
57113;SDS011;42994;51.606;9.988;2023-03-03T08:33:45;32.13;;;12.18;;
57113;SDS011;42994;51.606;9.988;2023-03-03T08:36:13;28.45;;;11.65;;
57113;SDS011;42994;51.606;9.988;2023-03-03T08:38:40;27.60;;;13.60;;
57113;SDS011;42994;51.606;9.988;2023-03-03T08:41:06;32.78;;;12.73;;
57113;SDS011;42994;51.606;9.988;2023-03-03T08:43:33;25.25;;;12.77;;
57113;SDS011;42994;51.606;9.988;2023-03-03T08:46:01;41.45;;;13.75;;
57113;SDS011;42994;51.606;9.988;2023-03-03T08:48:29;30.33;;;12.30;;
57113;SDS011;42994;51.606;9.988;2023-03-03T08:50:58;37.08;;;14.00;;
57113;SDS011;42994;51.606;9.988;2023-03-03T08:53:26;32.55;;;15.15;;
57113;SDS011;42994;51.606;9.988;2023-03-03T08:55:53;32.72;;;12.95;;
57113;SDS011;42994;51.606;9.988;2023-03-03T08:58:20;29.70;;;12.98;;
57113;SDS011;42994;51.606;9.988;2023-03-03T09:00:47;32.30;;;14.38;;
57113;SDS011;42994;51.606;9.988;2023-03-03T09:03:13;34.30;;;14.30;;
57113;SDS011;42994;51.606;9.988;2023-03-03T09:05:40;35.03;;;15.85;;
57113;SDS011;42994;51.606;9.988;2023-03-03T09:08:09;28.58;;;13.98;;
57113;SDS011;42994;51.606;9.988;2023-03-03T09:10:37;26.55;;;12.68;;
57113;SDS011;42994;51.606;9.988;2023-03-03T09:13:07;32.22;;;13.02;;
57113;SDS011;42994;51.606;9.988;2023-03-03T09:15:39;30.30;;;12.65;;
57113;SDS011;42994;51.606;9.988;2023-03-03T09:18:09;30.98;;;13.15;;
57113;SDS011;42994;51.606;9.988;2023-03-03T09:20:41;30.83;;;12.98;;
57113;SDS011;42994;51.606;9.988;2023-03-03T09:26:20;31.90;;;11.93;;
57113;SDS011;42994;51.606;9.988;2023-03-03T09:28:54;28.13;;;10.88;;
57113;SDS011;42994;51.606;9.988;2023-03-03T09:31:24;27.35;;;12.05;;
57113;SDS011;42994;51.606;9.988;2023-03-03T09:33:53;32.17;;;12.68;;
57113;SDS011;42994;51.606;9.988;2023-03-03T09:36:23;25.48;;;11.52;;
57113;SDS011;42994;51.606;9.988;2023-03-03T09:38:52;33.63;;;12.25;;
57113;SDS011;42994;51.606;9.988;2023-03-03T09:44:18;32.58;;;13.20;;
57113;SDS011;42994;51.606;9.988;2023-03-03T09:47:00;33.88;;;12.35;;
57113;SDS011;42994;51.606;9.988;2023-03-03T09:49:40;33.05;;;13.98;;
57113;SDS011;42994;51.606;9.988;2023-03-03T09:52:24;35.38;;;14.30;;
57113;SDS011;42994;51.606;9.988;2023-03-03T09:55:04;31.05;;;13.98;;
57113;SDS011;42994;51.606;9.988;2023-03-03T09:57:53;35.90;;;15.27;;
57113;SDS011;42994;51.606;9.988;2023-03-03T10:00:30;37.33;;;17.13;;
57113;SDS011;42994;51.606;9.988;2023-03-03T10:03:11;38.00;;;14.90;;
57113;SDS011;42994;51.606;9.988;2023-03-03T10:05:57;38.17;;;14.93;;
57113;SDS011;42994;51.606;9.988;2023-03-03T10:08:30;39.50;;;15.13;;
57113;SDS011;42994;51.606;9.988;2023-03-03T10:11:09;38.70;;;17.52;;
57113;SDS011;42994;51.606;9.988;2023-03-03T10:13:48;60.47;;;37.70;;
57113;SDS011;42994;51.606;9.988;2023-03-03T10:16:35;33.00;;;19.08;;
57113;SDS011;42994;51.606;9.988;2023-03-03T10:19:15;38.03;;;17.85;;
57113;SDS011;42994;51.606;9.988;2023-03-03T10:22:00;34.70;;;14.68;;
57113;SDS011;42994;51.606;9.988;2023-03-03T10:24:38;39.55;;;18.55;;
57113;SDS011;42994;51.606;9.988;2023-03-03T10:27:18;35.50;;;17.27;;
57113;SDS011;42994;51.606;9.988;2023-03-03T10:30:02;33.35;;;13.98;;
57113;SDS011;42994;51.606;9.988;2023-03-03T10:32:39;33.25;;;14.60;;
57113;SDS011;42994;51.606;9.988;2023-03-03T10:38:21;33.20;;;12.60;;
57113;SDS011;42994;51.606;9.988;2023-03-03T10:41:00;30.30;;;13.85;;
57113;SDS011;42994;51.606;9.988;2023-03-03T10:43:48;32.90;;;15.10;;
57113;SDS011;42994;51.606;9.988;2023-03-03T10:49:26;33.58;;;15.40;;
57113;SDS011;42994;51.606;9.988;2023-03-03T10:52:10;32.80;;;13.02;;
57113;SDS011;42994;51.606;9.988;2023-03-03T10:54:54;31.00;;;14.00;;
57113;SDS011;42994;51.606;9.988;2023-03-03T10:57:33;36.10;;;16.42;;
57113;SDS011;42994;51.606;9.988;2023-03-03T11:00:15;32.08;;;14.55;;
57113;SDS011;42994;51.606;9.988;2023-03-03T11:02:52;35.75;;;15.68;;
57113;SDS011;42994;51.606;9.988;2023-03-03T11:05:34;31.48;;;12.95;;
57113;SDS011;42994;51.606;9.988;2023-03-03T11:08:08;36.65;;;14.73;;
57113;SDS011;42994;51.606;9.988;2023-03-03T11:13:15;26.90;;;12.25;;
57113;SDS011;42994;51.606;9.988;2023-03-03T11:16:01;26.10;;;11.52;;
57113;SDS011;42994;51.606;9.988;2023-03-03T11:18:47;24.63;;;11.57;;
57113;SDS011;42994;51.606;9.988;2023-03-03T11:21:27;28.65;;;11.93;;
57113;SDS011;42994;51.606;9.988;2023-03-03T11:24:01;25.85;;;13.77;;
57113;SDS011;42994;51.606;9.988;2023-03-03T11:26:43;20.13;;;10.43;;
57113;SDS011;42994;51.606;9.988;2023-03-03T11:29:31;25.10;;;11.73;;
57113;SDS011;42994;51.606;9.988;2023-03-03T11:32:12;30.87;;;12.80;;
57113;SDS011;42994;51.606;9.988;2023-03-03T11:34:50;30.48;;;14.52;;
57113;SDS011;42994;51.606;9.988;2023-03-03T11:37:25;31.45;;;15.75;;
57113;SDS011;42994;51.606;9.988;2023-03-03T11:40:03;22.13;;;10.18;;
57113;SDS011;42994;51.606;9.988;2023-03-03T11:42:40;25.48;;;11.55;;
57113;SDS011;42994;51.606;9.988;2023-03-03T11:45:17;24.17;;;10.65;;
57113;SDS011;42994;51.606;9.988;2023-03-03T11:47:47;26.30;;;11.15;;
57113;SDS011;42994;51.606;9.988;2023-03-03T11:50:21;26.25;;;13.55;;
57113;SDS011;42994;51.606;9.988;2023-03-03T11:52:52;32.83;;;15.68;;
57113;SDS011;42994;51.606;9.988;2023-03-03T11:55:30;24.40;;;13.00;;
57113;SDS011;42994;51.606;9.988;2023-03-03T11:58:04;26.50;;;12.57;;
57113;SDS011;42994;51.606;9.988;2023-03-03T12:00:38;28.75;;;13.50;;
57113;SDS011;42994;51.606;9.988;2023-03-03T12:05:44;24.38;;;10.40;;
57113;SDS011;42994;51.606;9.988;2023-03-03T12:08:28;23.23;;;10.43;;
57113;SDS011;42994;51.606;9.988;2023-03-03T12:11:04;21.95;;;10.48;;
57113;SDS011;42994;51.606;9.988;2023-03-03T12:13:37;21.30;;;10.25;;
57113;SDS011;42994;51.606;9.988;2023-03-03T12:16:18;22.73;;;11.48;;
57113;SDS011;42994;51.606;9.988;2023-03-03T12:19:01;22.17;;;9.88;;
57113;SDS011;42994;51.606;9.988;2023-03-03T12:21:42;23.58;;;10.13;;
57113;SDS011;42994;51.606;9.988;2023-03-03T12:24:25;20.13;;;9.82;;
57113;SDS011;42994;51.606;9.988;2023-03-03T12:27:04;21.63;;;10.70;;
57113;SDS011;42994;51.606;9.988;2023-03-03T12:29:40;23.20;;;11.32;;
57113;SDS011;42994;51.606;9.988;2023-03-03T12:32:14;25.63;;;12.63;;
57113;SDS011;42994;51.606;9.988;2023-03-03T12:34:53;26.37;;;12.03;;
57113;SDS011;42994;51.606;9.988;2023-03-03T12:37:33;22.77;;;10.80;;
57113;SDS011;42994;51.606;9.988;2023-03-03T12:40:13;24.55;;;13.02;;
57113;SDS011;42994;51.606;9.988;2023-03-03T12:45:35;22.55;;;10.10;;
57113;SDS011;42994;51.606;9.988;2023-03-03T12:48:13;26.63;;;14.27;;
57113;SDS011;42994;51.606;9.988;2023-03-03T12:50:45;20.92;;;10.25;;
57113;SDS011;42994;51.606;9.988;2023-03-03T12:53:34;23.08;;;10.73;;
57113;SDS011;42994;51.606;9.988;2023-03-03T12:56:11;31.27;;;15.98;;
57113;SDS011;42994;51.606;9.988;2023-03-03T12:58:41;35.28;;;20.10;;
57113;SDS011;42994;51.606;9.988;2023-03-03T13:01:30;17.17;;;9.82;;
57113;SDS011;42994;51.606;9.988;2023-03-03T13:04:07;18.17;;;9.05;;
57113;SDS011;42994;51.606;9.988;2023-03-03T13:06:39;17.65;;;9.15;;
57113;SDS011;42994;51.606;9.988;2023-03-03T13:09:24;21.33;;;9.90;;
57113;SDS011;42994;51.606;9.988;2023-03-03T13:12:03;23.70;;;11.55;;
57113;SDS011;42994;51.606;9.988;2023-03-03T13:14:44;16.08;;;8.45;;
57113;SDS011;42994;51.606;9.988;2023-03-03T13:17:18;18.95;;;10.48;;
57113;SDS011;42994;51.606;9.988;2023-03-03T13:19:53;18.65;;;9.32;;
57113;SDS011;42994;51.606;9.988;2023-03-03T13:22:30;18.00;;;8.32;;
57113;SDS011;42994;51.606;9.988;2023-03-03T13:25:05;16.65;;;8.73;;
57113;SDS011;42994;51.606;9.988;2023-03-03T13:27:46;18.88;;;9.70;;
57113;SDS011;42994;51.606;9.988;2023-03-03T13:30:19;17.30;;;9.30;;
57113;SDS011;42994;51.606;9.988;2023-03-03T13:32:50;19.23;;;10.00;;
57113;SDS011;42994;51.606;9.988;2023-03-03T13:35:29;18.60;;;9.98;;
57113;SDS011;42994;51.606;9.988;2023-03-03T13:38:04;22.48;;;9.30;;
57113;SDS011;42994;51.606;9.988;2023-03-03T13:40:38;18.10;;;8.90;;
57113;SDS011;42994;51.606;9.988;2023-03-03T13:43:09;19.67;;;10.85;;
57113;SDS011;42994;51.606;9.988;2023-03-03T13:45:44;18.88;;;9.30;;
57113;SDS011;42994;51.606;9.988;2023-03-03T13:48:24;19.23;;;9.85;;
57113;SDS011;42994;51.606;9.988;2023-03-03T13:51:00;24.17;;;10.95;;
57113;SDS011;42994;51.606;9.988;2023-03-03T13:53:38;20.08;;;9.27;;
57113;SDS011;42994;51.606;9.988;2023-03-03T13:56:15;25.00;;;9.80;;
57113;SDS011;42994;51.606;9.988;2023-03-03T13:58:51;18.15;;;9.70;;
57113;SDS011;42994;51.606;9.988;2023-03-03T14:01:27;19.98;;;9.63;;
57113;SDS011;42994;51.606;9.988;2023-03-03T14:04:05;18.23;;;11.13;;
57113;SDS011;42994;51.606;9.988;2023-03-03T14:06:40;19.27;;;10.15;;
57113;SDS011;42994;51.606;9.988;2023-03-03T14:09:18;24.88;;;10.95;;
57113;SDS011;42994;51.606;9.988;2023-03-03T14:11:59;21.45;;;10.73;;
57113;SDS011;42994;51.606;9.988;2023-03-03T14:14:36;21.75;;;9.82;;
57113;SDS011;42994;51.606;9.988;2023-03-03T14:17:11;20.88;;;10.20;;
57113;SDS011;42994;51.606;9.988;2023-03-03T14:19:49;20.02;;;10.60;;
57113;SDS011;42994;51.606;9.988;2023-03-03T14:22:24;21.33;;;11.02;;
57113;SDS011;42994;51.606;9.988;2023-03-03T14:25:08;17.67;;;9.95;;
57113;SDS011;42994;51.606;9.988;2023-03-03T14:27:39;18.35;;;9.25;;
57113;SDS011;42994;51.606;9.988;2023-03-03T14:30:24;19.52;;;10.32;;
57113;SDS011;42994;51.606;9.988;2023-03-03T14:32:59;21.85;;;10.48;;
57113;SDS011;42994;51.606;9.988;2023-03-03T14:35:29;17.55;;;9.10;;
57113;SDS011;42994;51.606;9.988;2023-03-03T14:38:00;21.73;;;9.65;;
57113;SDS011;42994;51.606;9.988;2023-03-03T14:40:32;20.15;;;10.48;;
57113;SDS011;42994;51.606;9.988;2023-03-03T14:43:03;18.33;;;10.32;;
57113;SDS011;42994;51.606;9.988;2023-03-03T14:45:44;22.65;;;12.65;;
57113;SDS011;42994;51.606;9.988;2023-03-03T14:48:13;19.25;;;10.63;;
57113;SDS011;42994;51.606;9.988;2023-03-03T14:53:14;18.95;;;9.70;;
57113;SDS011;42994;51.606;9.988;2023-03-03T14:55:47;20.65;;;10.77;;
57113;SDS011;42994;51.606;9.988;2023-03-03T14:58:25;20.80;;;11.13;;
57113;SDS011;42994;51.606;9.988;2023-03-03T15:01:07;22.27;;;10.95;;
57113;SDS011;42994;51.606;9.988;2023-03-03T15:03:43;20.73;;;10.23;;
57113;SDS011;42994;51.606;9.988;2023-03-03T15:06:25;18.92;;;10.10;;
57113;SDS011;42994;51.606;9.988;2023-03-03T15:08:55;22.65;;;9.90;;
57113;SDS011;42994;51.606;9.988;2023-03-03T15:11:25;20.55;;;10.30;;
57113;SDS011;42994;51.606;9.988;2023-03-03T15:13:56;23.73;;;12.00;;
57113;SDS011;42994;51.606;9.988;2023-03-03T15:19:09;19.02;;;9.43;;
57113;SDS011;42994;51.606;9.988;2023-03-03T15:21:52;23.95;;;10.68;;
57113;SDS011;42994;51.606;9.988;2023-03-03T15:24:30;18.90;;;10.10;;
57113;SDS011;42994;51.606;9.988;2023-03-03T15:27:03;18.20;;;10.32;;
57113;SDS011;42994;51.606;9.988;2023-03-03T15:29:37;23.55;;;10.07;;